createdAt,value
2017-11-21T00:01:04.791Z,27.17
2017-11-21T00:03:31.102Z,26.70
2017-11-21T00:05:57.415Z,28.07
2017-11-21T00:08:23.697Z,29.90
2017-11-21T00:10:49.992Z,27.10
2017-11-21T00:13:16.267Z,27.67
2017-11-21T00:15:42.590Z,30.90
2017-11-21T00:18:09.614Z,27.80
2017-11-21T00:20:35.891Z,27.93
2017-11-21T00:23:02.195Z,27.87
2017-11-21T00:25:28.482Z,28.10
2017-11-21T00:27:54.783Z,29.53
2017-11-21T00:30:21.075Z,29.90
2017-11-21T00:32:47.366Z,31.60
2017-11-21T00:35:13.633Z,31.37
2017-11-21T00:37:39.932Z,31.40
2017-11-21T00:40:06.199Z,31.80
2017-11-21T00:42:32.514Z,33.03
2017-11-21T00:44:58.835Z,32.47
2017-11-21T00:47:25.147Z,36.87
2017-11-21T00:49:51.455Z,34.00
2017-11-21T00:52:17.769Z,32.43
2017-11-21T00:54:44.064Z,33.47
2017-11-21T00:57:10.354Z,36.17
2017-11-21T00:59:36.634Z,35.00
2017-11-21T01:02:02.954Z,34.60
2017-11-21T01:04:29.249Z,35.30
2017-11-21T01:06:55.579Z,32.77
2017-11-21T01:09:21.889Z,31.73
2017-11-21T01:11:48.170Z,32.90
2017-11-21T01:14:14.462Z,34.30
2017-11-21T01:16:40.738Z,31.73
2017-11-21T01:19:07.788Z,30.67
2017-11-21T01:21:34.110Z,32.07
2017-11-21T01:24:01.160Z,30.63
2017-11-21T01:26:28.199Z,30.17
2017-11-21T01:28:54.500Z,29.10
2017-11-21T01:31:20.815Z,30.70
2017-11-21T01:33:47.124Z,30.77
2017-11-21T01:36:14.169Z,29.33
2017-11-21T01:38:40.494Z,31.03
2017-11-21T01:41:07.510Z,32.60
2017-11-21T01:43:34.554Z,34.77
2017-11-21T01:46:00.830Z,29.30
2017-11-21T01:48:27.856Z,30.00
2017-11-21T01:50:54.869Z,29.13
2017-11-21T01:53:21.188Z,30.30
2017-11-21T01:55:47.431Z,30.93
2017-11-21T01:58:13.691Z,31.00
2017-11-21T02:00:40.734Z,33.23
2017-11-21T02:03:07.759Z,32.80
2017-11-21T02:05:34.024Z,33.10
2017-11-21T02:08:01.034Z,31.20
2017-11-21T02:10:27.330Z,33.07
2017-11-21T02:12:53.608Z,32.90
2017-11-21T02:15:20.645Z,33.80
2017-11-21T02:17:47.665Z,30.63
2017-11-21T02:20:13.966Z,36.80
2017-11-21T02:22:40.268Z,33.57
2017-11-21T02:25:07.321Z,33.37
2017-11-21T02:27:33.613Z,34.40
2017-11-21T02:29:59.928Z,35.17
2017-11-21T02:32:26.223Z,33.50
2017-11-21T02:34:52.518Z,32.53
2017-11-21T02:37:19.568Z,33.57
2017-11-21T02:39:46.613Z,32.57
2017-11-21T02:42:12.911Z,32.57
2017-11-21T02:44:39.206Z,33.17
2017-11-21T02:47:05.518Z,31.77
2017-11-21T02:49:32.548Z,30.80
2017-11-21T02:51:58.861Z,32.80
2017-11-21T02:54:25.161Z,35.70
2017-11-21T02:56:51.463Z,29.77
2017-11-21T02:59:18.489Z,30.60
2017-11-21T03:01:45.542Z,33.80
2017-11-21T03:04:12.581Z,32.80
2017-11-21T03:06:39.655Z,31.70
2017-11-21T03:09:07.646Z,30.47
2017-11-21T03:11:34.002Z,32.50
2017-11-21T03:14:00.287Z,30.43
2017-11-21T03:16:26.591Z,31.17
2017-11-21T03:18:52.953Z,30.53
2017-11-21T03:21:32.524Z,30.57
2017-11-21T03:24:11.235Z,28.93
2017-11-21T03:26:38.233Z,29.70
2017-11-21T03:29:04.576Z,31.93
2017-11-21T03:31:30.909Z,31.03
2017-11-21T03:33:57.229Z,31.23
2017-11-21T03:36:23.542Z,31.00
2017-11-21T03:38:50.627Z,30.63
2017-11-21T03:41:16.927Z,32.00
2017-11-21T03:43:43.245Z,31.60
2017-11-21T03:46:09.543Z,31.53
2017-11-21T03:48:35.899Z,31.90
2017-11-21T03:51:02.208Z,31.90
2017-11-21T03:53:28.520Z,33.63
2017-11-21T03:55:54.821Z,30.07
2017-11-21T03:58:21.887Z,29.37
2017-11-21T04:00:55.302Z,29.80
2017-11-21T04:03:21.627Z,31.07
2017-11-21T04:05:47.948Z,30.50
2017-11-21T04:08:14.251Z,28.77
2017-11-21T04:10:41.327Z,30.63
2017-11-21T04:13:07.619Z,30.03
2017-11-21T04:15:34.680Z,28.87
2017-11-21T04:18:01.726Z,28.43
2017-11-21T04:20:28.754Z,28.83
2017-11-21T04:22:55.813Z,27.30
2017-11-21T04:25:22.875Z,27.70
2017-11-21T04:27:49.171Z,29.50
2017-11-21T04:30:15.508Z,26.50
2017-11-21T04:32:42.556Z,27.40
2017-11-21T04:35:08.884Z,27.63
2017-11-21T04:37:35.198Z,28.57
2017-11-21T04:40:01.517Z,28.77
2017-11-21T04:42:27.823Z,27.20
2017-11-21T04:44:54.154Z,27.83
2017-11-21T04:47:20.470Z,29.43
2017-11-21T04:49:46.772Z,31.60
2017-11-21T04:52:13.084Z,29.10
2017-11-21T04:54:40.882Z,28.30
2017-11-21T04:57:07.231Z,29.00
2017-11-21T04:59:33.547Z,29.47
2017-11-21T05:01:59.875Z,28.80
2017-11-21T05:04:26.918Z,27.57
2017-11-21T05:06:53.264Z,26.43
2017-11-21T05:09:19.575Z,26.80
2017-11-21T05:11:46.626Z,27.70
2017-11-21T05:14:13.663Z,28.43
2017-11-21T05:16:40.717Z,30.20
2017-11-21T05:19:07.033Z,29.27
2017-11-21T05:21:34.832Z,30.70
2017-11-21T05:24:01.161Z,26.70
2017-11-21T05:26:27.482Z,27.30
2017-11-21T05:28:54.286Z,27.57
2017-11-21T05:31:21.636Z,30.87
2017-11-21T05:33:48.037Z,31.27
2017-11-21T05:36:14.363Z,29.27
2017-11-21T05:38:40.694Z,31.80
2017-11-21T05:41:07.031Z,31.50
2017-11-21T05:43:33.354Z,30.23
2017-11-21T05:45:59.655Z,29.87
2017-11-21T05:48:26.039Z,31.10
2017-11-21T05:50:52.379Z,33.23
2017-11-21T05:53:18.709Z,31.47
2017-11-21T05:55:45.049Z,31.20
2017-11-21T05:58:11.381Z,30.30
2017-11-21T06:00:37.696Z,29.60
2017-11-21T06:03:04.029Z,31.53
2017-11-21T06:05:30.357Z,30.93
2017-11-21T06:07:56.642Z,34.33
2017-11-21T06:10:23.677Z,35.93
2017-11-21T06:12:50.698Z,33.90
2017-11-21T06:15:16.983Z,28.23
2017-11-21T06:17:43.275Z,33.83
2017-11-21T06:20:10.331Z,33.93
2017-11-21T06:22:37.338Z,30.70
2017-11-21T06:25:03.647Z,30.20
2017-11-21T06:27:29.931Z,31.60
2017-11-21T06:29:56.991Z,36.67
2017-11-21T06:32:23.273Z,29.23
2017-11-21T06:34:49.586Z,31.03
2017-11-21T06:37:15.953Z,32.43
2017-11-21T06:39:43.477Z,33.47
2017-11-21T06:42:09.809Z,31.80
2017-11-21T06:44:36.180Z,27.93
2017-11-21T06:47:03.206Z,28.47
2017-11-21T06:49:29.489Z,27.87
2017-11-21T06:51:57.322Z,31.30
2017-11-21T06:54:23.620Z,27.13
2017-11-21T06:56:49.926Z,29.20
2017-11-21T06:59:16.214Z,32.40
2017-11-21T07:01:43.253Z,28.97
2017-11-21T07:04:09.547Z,27.83
2017-11-21T07:06:35.864Z,25.83
2017-11-21T07:09:02.207Z,25.63
2017-11-21T07:11:28.519Z,30.00
2017-11-21T07:13:54.808Z,28.43
2017-11-21T07:16:21.863Z,30.73
2017-11-21T07:18:48.897Z,30.10
2017-11-21T07:21:15.960Z,28.23
2017-11-21T07:23:42.270Z,25.10
2017-11-21T07:26:09.337Z,29.17
2017-11-21T07:28:36.375Z,29.83
2017-11-21T07:31:02.713Z,27.07
2017-11-21T07:33:29.021Z,29.93
2017-11-21T07:35:55.309Z,29.33
2017-11-21T07:38:21.646Z,29.70
2017-11-21T07:40:47.942Z,30.50
2017-11-21T07:43:14.266Z,30.50
2017-11-21T07:45:41.283Z,31.17
2017-11-21T07:48:07.620Z,30.60
2017-11-21T07:50:34.662Z,28.37
2017-11-21T07:53:00.985Z,29.57
2017-11-21T07:55:28.756Z,25.53
2017-11-21T07:57:55.054Z,27.90
2017-11-21T08:00:21.340Z,29.10
2017-11-21T08:02:47.658Z,29.07
2017-11-21T08:05:14.706Z,26.07
2017-11-21T08:07:41.769Z,28.13
2017-11-21T08:10:08.336Z,27.80
2017-11-21T08:12:34.714Z,26.47
2017-11-21T08:15:01.047Z,26.47
2017-11-21T08:17:28.121Z,27.07
2017-11-21T08:19:54.455Z,30.43
2017-11-21T08:22:20.794Z,28.23
2017-11-21T08:24:47.116Z,25.40
2017-11-21T08:27:13.444Z,25.83
2017-11-21T08:29:39.777Z,28.30
2017-11-21T08:32:06.103Z,28.37
2017-11-21T08:34:32.457Z,25.93
2017-11-21T08:36:58.790Z,26.50
2017-11-21T08:39:25.090Z,25.43
2017-11-21T08:41:51.422Z,29.13
2017-11-21T08:44:17.728Z,26.30
2017-11-21T08:46:44.780Z,25.97
2017-11-21T08:49:11.815Z,27.83
2017-11-21T08:51:38.115Z,26.93
2017-11-21T08:54:04.439Z,26.90
2017-11-21T08:56:30.728Z,26.60
2017-11-21T08:58:57.042Z,22.80
2017-11-21T09:01:24.099Z,25.60
2017-11-21T09:03:51.152Z,24.87
2017-11-21T09:06:18.205Z,26.23
2017-11-21T09:08:45.228Z,25.10
2017-11-21T09:11:11.620Z,23.10
2017-11-21T09:13:37.939Z,25.87
2017-11-21T09:16:04.259Z,23.97
2017-11-21T09:18:30.605Z,24.73
2017-11-21T09:20:56.938Z,23.03
2017-11-21T09:23:23.240Z,24.97
2017-11-21T09:25:49.537Z,24.80
2017-11-21T09:28:15.836Z,24.00
2017-11-21T09:30:42.151Z,24.10
2017-11-21T09:33:08.450Z,25.73
2017-11-21T09:35:34.768Z,23.90
2017-11-21T09:38:01.828Z,24.67
2017-11-21T09:40:28.162Z,24.97
2017-11-21T09:42:54.454Z,24.27
2017-11-21T09:45:20.793Z,24.60
2017-11-21T09:47:47.084Z,24.87
2017-11-21T09:50:13.385Z,24.13
2017-11-21T09:52:39.688Z,24.93
2017-11-21T09:55:06.015Z,23.40
2017-11-21T09:57:33.074Z,24.47
2017-11-21T10:00:00.114Z,23.60
2017-11-21T10:02:27.160Z,23.27
2017-11-21T10:04:54.219Z,24.20
2017-11-21T10:07:20.557Z,22.00
2017-11-21T10:09:47.611Z,23.13
2017-11-21T10:12:13.948Z,24.63
2017-11-21T10:14:40.271Z,24.73
2017-11-21T10:17:06.603Z,23.10
2017-11-21T10:19:32.927Z,22.60
2017-11-21T10:21:59.275Z,22.00
2017-11-21T10:24:25.633Z,20.07
2017-11-21T10:26:52.004Z,23.70
2017-11-21T10:29:19.077Z,22.60
2017-11-21T10:31:45.395Z,21.50
2017-11-21T10:34:11.720Z,23.50
2017-11-21T10:36:38.783Z,22.17
2017-11-21T10:39:05.124Z,22.83
2017-11-21T10:41:31.479Z,21.83
2017-11-21T10:43:57.780Z,21.13
2017-11-21T10:46:24.116Z,22.43
2017-11-21T10:48:50.418Z,22.37
2017-11-21T10:51:16.723Z,19.17
2017-11-21T10:53:43.047Z,19.30
2017-11-21T10:56:09.363Z,23.70
2017-11-21T10:58:35.705Z,20.40
2017-11-21T11:01:02.782Z,20.33
2017-11-21T11:03:29.127Z,25.27
2017-11-21T11:05:55.518Z,21.87
2017-11-21T11:08:22.616Z,19.70
2017-11-21T11:10:48.965Z,18.47
2017-11-21T11:13:15.326Z,20.10
2017-11-21T11:15:41.651Z,18.70
2017-11-21T11:18:07.980Z,20.70
2017-11-21T11:20:34.318Z,18.80
2017-11-21T11:23:00.666Z,18.53
2017-11-21T11:25:27.741Z,18.80
2017-11-21T11:27:54.075Z,18.07
2017-11-21T11:30:20.418Z,18.50
2017-11-21T11:32:46.755Z,18.37
2017-11-21T11:35:13.078Z,19.10
2017-11-21T11:37:39.407Z,19.73
2017-11-21T11:40:05.760Z,21.30
2017-11-21T11:42:32.106Z,20.73
2017-11-21T11:44:58.450Z,21.30
2017-11-21T11:47:25.552Z,21.87
2017-11-21T11:49:51.921Z,20.40
2017-11-21T11:52:19.031Z,19.77
2017-11-21T11:54:45.414Z,19.33
2017-11-21T11:57:12.589Z,18.80
2017-11-21T11:59:38.998Z,18.10
2017-11-21T12:02:05.358Z,19.07
2017-11-21T12:04:31.712Z,22.17
2017-11-21T12:06:58.090Z,18.90
2017-11-21T12:09:25.182Z,19.37
2017-11-21T12:11:51.520Z,20.70
2017-11-21T12:14:17.851Z,18.17
2017-11-21T12:16:44.227Z,20.00
2017-11-21T12:19:11.313Z,19.53
2017-11-21T12:21:37.660Z,20.50
2017-11-21T12:24:04.004Z,22.07
2017-11-21T12:26:30.351Z,19.20
2017-11-21T12:28:57.440Z,19.40
2017-11-21T12:31:23.800Z,21.87
2017-11-21T12:33:50.180Z,21.90
2017-11-21T12:36:17.265Z,21.53
2017-11-21T12:38:43.613Z,20.30
2017-11-21T12:41:09.952Z,20.23
2017-11-21T12:43:36.307Z,20.93
2017-11-21T12:46:03.392Z,23.60
2017-11-21T12:48:29.770Z,20.03
2017-11-21T12:50:56.101Z,23.27
2017-11-21T12:53:22.464Z,20.07
2017-11-21T12:55:49.578Z,20.10
2017-11-21T12:58:15.929Z,21.50
2017-11-21T13:00:42.993Z,19.00
2017-11-21T13:03:10.080Z,17.33
2017-11-21T13:05:36.430Z,17.30
2017-11-21T13:08:02.759Z,17.50
2017-11-21T13:10:29.128Z,18.40
2017-11-21T13:12:56.203Z,19.43
2017-11-21T13:15:22.535Z,21.07
2017-11-21T13:17:48.868Z,19.13
2017-11-21T13:20:15.203Z,19.13
2017-11-21T13:22:41.533Z,17.40
2017-11-21T13:25:07.874Z,21.00
2017-11-21T13:27:34.221Z,20.97
2017-11-21T13:30:00.577Z,20.07
2017-11-21T13:32:27.654Z,21.87
2017-11-21T13:34:53.996Z,21.27
2017-11-21T13:37:20.336Z,21.73
2017-11-21T13:39:46.682Z,22.20
2017-11-21T13:42:12.995Z,22.83
2017-11-21T13:44:39.341Z,21.80
2017-11-21T13:47:05.687Z,23.50
2017-11-21T13:49:32.022Z,20.30
2017-11-21T13:51:58.360Z,26.37
2017-11-21T13:54:32.726Z,20.97
2017-11-21T13:56:59.063Z,19.33
2017-11-21T13:59:25.401Z,21.07
2017-11-21T14:01:51.747Z,23.03
2017-11-21T14:04:18.070Z,20.53
2017-11-21T14:06:44.409Z,20.93
2017-11-21T14:09:10.731Z,22.57
2017-11-21T14:11:37.064Z,22.77
2017-11-21T14:14:03.391Z,25.00
2017-11-21T14:16:29.749Z,22.47
2017-11-21T14:18:56.057Z,22.03
2017-11-21T14:21:22.403Z,22.20
2017-11-21T14:23:48.740Z,24.60
2017-11-21T14:26:15.082Z,25.43
2017-11-21T14:28:42.170Z,20.10
2017-11-21T14:31:08.514Z,21.40
2017-11-21T14:33:34.846Z,24.33
2017-11-21T14:36:01.179Z,22.90
2017-11-21T14:38:27.521Z,29.17
2017-11-21T14:40:53.865Z,25.13
2017-11-21T14:43:20.936Z,25.10
2017-11-21T14:45:48.022Z,22.90
2017-11-21T14:48:14.349Z,22.30
2017-11-21T14:50:40.697Z,24.40
2017-11-21T14:53:07.041Z,25.43
2017-11-21T14:55:33.393Z,23.13
2017-11-21T14:57:59.871Z,25.70
2017-11-21T15:00:26.201Z,25.93
2017-11-21T15:02:52.532Z,27.87
2017-11-21T15:05:18.854Z,27.33
2017-11-21T15:07:45.187Z,26.53
2017-11-21T15:10:11.503Z,28.37
2017-11-21T15:12:37.833Z,25.87
2017-11-21T15:15:04.907Z,24.53
2017-11-21T15:17:31.233Z,25.83
2017-11-21T15:19:57.553Z,24.40
2017-11-21T15:22:23.890Z,29.23
2017-11-21T15:24:50.964Z,24.77
2017-11-21T15:27:17.274Z,25.17
2017-11-21T15:29:43.630Z,24.17
2017-11-21T15:32:09.950Z,26.57
2017-11-21T15:34:36.289Z,25.37
2017-11-21T15:37:02.612Z,24.30
2017-11-21T15:39:28.919Z,26.77
2017-11-21T15:41:55.218Z,24.43
2017-11-21T15:44:21.541Z,29.33
2017-11-21T15:46:47.830Z,29.07
2017-11-21T15:49:14.154Z,28.60
2017-11-21T15:51:40.463Z,27.80
2017-11-21T15:54:07.529Z,26.67
2017-11-21T15:56:33.854Z,25.83
2017-11-21T15:59:00.939Z,27.80
2017-11-21T16:01:27.236Z,24.73
2017-11-21T16:03:53.603Z,24.30
2017-11-21T16:06:19.933Z,28.20
2017-11-21T16:08:46.267Z,23.83
2017-11-21T16:11:12.598Z,26.93
2017-11-21T16:13:38.915Z,27.47
2017-11-21T16:16:05.256Z,24.40
2017-11-21T16:18:31.862Z,26.23
2017-11-21T16:20:58.214Z,27.10
2017-11-21T16:23:24.541Z,28.07
2017-11-21T16:25:50.861Z,24.83
2017-11-21T16:28:17.258Z,24.87
2017-11-21T16:30:43.605Z,22.73
2017-11-21T16:33:09.919Z,25.60
2017-11-21T16:35:36.968Z,23.93
2017-11-21T16:38:03.278Z,28.13
2017-11-21T16:40:30.380Z,25.07
2017-11-21T16:42:56.698Z,23.60
2017-11-21T16:45:23.019Z,24.20
2017-11-21T16:47:49.366Z,22.17
2017-11-21T16:50:15.681Z,23.37
2017-11-21T16:52:42.010Z,22.67
2017-11-21T16:55:08.330Z,24.97
2017-11-21T16:57:35.389Z,23.60
2017-11-21T17:00:01.702Z,24.77
2017-11-21T17:02:28.046Z,22.13
2017-11-21T17:04:54.355Z,21.30
2017-11-21T17:07:21.426Z,21.93
2017-11-21T17:09:47.746Z,23.53
2017-11-21T17:12:14.067Z,22.63
2017-11-21T17:14:41.181Z,22.80
2017-11-21T17:17:07.518Z,22.43
2017-11-21T17:19:33.839Z,23.03
2017-11-21T17:22:00.153Z,19.50
2017-11-21T17:24:26.486Z,17.87
2017-11-21T17:26:52.780Z,17.20
2017-11-21T17:29:19.821Z,20.30
2017-11-21T17:31:46.842Z,19.33
2017-11-21T17:34:13.913Z,15.30
2017-11-21T17:36:40.934Z,18.50
2017-11-21T17:39:07.260Z,18.37
2017-11-21T17:41:33.579Z,16.87
2017-11-21T17:44:00.188Z,17.10
2017-11-21T17:46:26.482Z,15.53
2017-11-21T17:48:52.827Z,13.93
2017-11-21T17:51:19.142Z,15.67
2017-11-21T17:53:46.213Z,21.20
2017-11-21T17:56:12.531Z,17.60
2017-11-21T17:58:38.871Z,14.90
2017-11-21T18:01:05.202Z,14.77
2017-11-21T18:03:31.521Z,15.47
2017-11-21T18:05:57.845Z,15.23
2017-11-21T18:08:24.892Z,16.60
2017-11-21T18:10:51.225Z,22.73
2017-11-21T18:13:17.584Z,17.50
2017-11-21T18:15:43.975Z,15.40
2017-11-21T18:18:10.301Z,18.43
2017-11-21T18:20:37.375Z,17.30
2017-11-21T18:23:03.672Z,15.20
2017-11-21T18:25:30.763Z,15.77
2017-11-21T18:27:57.054Z,17.40
2017-11-21T18:30:24.085Z,15.17
2017-11-21T18:33:00.690Z,14.90
2017-11-21T18:35:27.011Z,13.80
2017-11-21T18:37:54.037Z,15.97
2017-11-21T18:40:20.346Z,12.30
2017-11-21T18:42:46.635Z,13.97
2017-11-21T18:45:12.973Z,13.00
2017-11-21T18:47:39.279Z,14.30
2017-11-21T18:50:05.611Z,14.73
2017-11-21T18:52:31.927Z,12.87
2017-11-21T18:54:58.242Z,12.17
2017-11-21T18:57:24.531Z,13.30
2017-11-21T18:59:50.842Z,12.37
2017-11-21T19:02:17.129Z,13.10
2017-11-21T19:04:43.411Z,12.53
2017-11-21T19:07:09.747Z,12.13
2017-11-21T19:09:36.156Z,12.77
2017-11-21T19:12:03.210Z,12.50
2017-11-21T19:14:29.510Z,13.63
2017-11-21T19:16:55.823Z,13.00
2017-11-21T19:19:22.140Z,12.60
2017-11-21T19:21:48.462Z,12.87
2017-11-21T19:24:14.749Z,12.67
2017-11-21T19:26:41.803Z,14.30
2017-11-21T19:29:08.123Z,13.13
2017-11-21T19:31:35.491Z,13.30
2017-11-21T19:34:01.835Z,12.60
2017-11-21T19:36:28.162Z,12.70
2017-11-21T19:38:54.495Z,13.47
2017-11-21T19:41:20.792Z,13.10
2017-11-21T19:43:47.830Z,12.97
2017-11-21T19:46:14.116Z,13.30
2017-11-21T19:48:40.423Z,14.73
2017-11-21T19:51:06.746Z,13.70
2017-11-21T19:53:33.784Z,14.23
2017-11-21T19:56:00.821Z,14.30
2017-11-21T19:58:27.887Z,14.57
2017-11-21T20:00:54.237Z,16.63
2017-11-21T20:03:20.558Z,15.67
2017-11-21T20:05:46.862Z,15.30
2017-11-21T20:08:13.912Z,16.47
2017-11-21T20:10:41.039Z,13.50
2017-11-21T20:13:07.396Z,16.70
2017-11-21T20:15:34.445Z,16.20
2017-11-21T20:18:00.947Z,15.73
2017-11-21T20:20:28.071Z,15.27
2017-11-21T20:22:54.436Z,17.40
2017-11-21T20:25:20.784Z,15.83
2017-11-21T20:27:47.123Z,15.53
2017-11-21T20:30:13.466Z,16.10
2017-11-21T20:32:39.824Z,17.70
2017-11-21T20:35:06.159Z,16.77
2017-11-21T20:37:32.802Z,15.90
2017-11-21T20:39:59.152Z,15.57
2017-11-21T20:42:25.464Z,17.10
2017-11-21T20:44:51.825Z,16.63
2017-11-21T20:47:18.882Z,16.23
2017-11-21T20:49:45.958Z,17.67
2017-11-21T20:52:12.333Z,16.67
2017-11-21T20:54:38.638Z,15.97
2017-11-21T20:57:04.995Z,15.90
2017-11-21T20:59:31.305Z,15.83
2017-11-21T21:01:57.627Z,15.20
2017-11-21T21:04:24.288Z,16.57
2017-11-21T21:06:50.596Z,15.03
2017-11-21T21:09:16.881Z,18.03
2017-11-21T21:11:43.937Z,14.30
2017-11-21T21:14:11.243Z,14.20
2017-11-21T21:16:37.627Z,13.73
2017-11-21T21:19:04.715Z,16.00
2017-11-21T21:21:31.025Z,13.87
2017-11-21T21:23:57.331Z,11.77
2017-11-21T21:26:24.123Z,12.70
2017-11-21T21:28:51.216Z,11.53
2017-11-21T21:31:18.237Z,11.00
2017-11-21T21:33:44.541Z,13.20
2017-11-21T21:36:17.779Z,11.63
2017-11-21T21:38:44.847Z,11.20
2017-11-21T21:41:11.222Z,12.07
2017-11-21T21:43:37.513Z,10.50
2017-11-21T21:46:03.829Z,10.77
2017-11-21T21:48:30.987Z,10.33
2017-11-21T21:50:57.266Z,9.33
2017-11-21T21:53:23.584Z,12.07
2017-11-21T21:55:49.882Z,8.37
2017-11-21T21:58:16.239Z,9.47
2017-11-21T22:00:42.567Z,11.27
2017-11-21T22:03:08.871Z,9.80
2017-11-21T22:05:35.187Z,11.33
2017-11-21T22:08:01.537Z,11.30
2017-11-21T22:10:27.941Z,10.10
2017-11-21T22:12:54.304Z,10.80
2017-11-21T22:15:20.696Z,10.77
2017-11-21T22:17:47.775Z,11.93
2017-11-21T22:20:14.099Z,10.37
2017-11-21T22:22:40.399Z,9.87
2017-11-21T22:25:07.468Z,10.07
2017-11-21T22:27:34.519Z,11.40
2017-11-21T22:30:01.571Z,10.37
2017-11-21T22:32:27.867Z,10.70
2017-11-21T22:34:55.648Z,9.73
2017-11-21T22:37:22.083Z,8.87
2017-11-21T22:39:49.130Z,8.60
2017-11-21T22:42:16.195Z,11.43
2017-11-21T22:44:42.543Z,9.93
2017-11-21T22:47:08.835Z,11.97
2017-11-21T22:49:35.942Z,9.23
2017-11-21T22:52:02.273Z,10.50
2017-11-21T22:54:28.610Z,10.77
2017-11-21T22:56:54.919Z,7.87
2017-11-21T22:59:21.408Z,10.40
2017-11-21T23:01:47.758Z,9.23
2017-11-21T23:04:14.106Z,9.43
2017-11-21T23:06:40.682Z,9.13
2017-11-21T23:09:07.080Z,11.60
2017-11-21T23:11:33.443Z,8.57
2017-11-21T23:13:59.779Z,11.53
2017-11-21T23:16:26.088Z,9.57
2017-11-21T23:18:53.912Z,10.47
2017-11-21T23:21:20.239Z,8.30
2017-11-21T23:23:46.542Z,9.47
2017-11-21T23:26:12.866Z,8.63
2017-11-21T23:28:39.915Z,8.10
2017-11-21T23:31:06.225Z,9.57
2017-11-21T23:33:32.549Z,8.27
2017-11-21T23:35:58.872Z,7.23
2017-11-21T23:38:25.202Z,8.20
2017-11-21T23:40:51.500Z,7.30
2017-11-21T23:43:17.812Z,7.20
2017-11-21T23:45:45.481Z,8.47
2017-11-21T23:48:12.359Z,6.47
2017-11-21T23:50:46.090Z,5.90
2017-11-21T23:53:12.409Z,6.07
2017-11-21T23:55:38.706Z,6.07
2017-11-21T23:58:05.015Z,6.57
